Time;durP1;ratioP1;P1;durP2;ratioP2;P2;SDS_P1;SDS_P2;PMS_P1;PMS_P2;Temp;Humidity;BMP_temperature;BMP_pressure;BME280_temperature;BME280_humidity;BME280_pressure;Samples;Min_cycle;Max_cycle;Signal;HPM_P1;HPM_P2
2021/04/23 00:01:20;;;;;;;4.88;3.80;;;;;;;24.80;23.98;94575.00;5033935;28;20057;-49
2021/04/23 00:03:50;;;;;;;5.60;3.53;;;;;;;25.10;23.27;94572.94;5018401;28;20053;-49
2021/04/23 00:06:31;;;;;;;7.07;3.92;;;;;;;23.31;26.01;94568.88;5035929;28;20049;-51
2021/04/23 00:09:06;;;;;;;5.88;3.60;;;;;;;24.07;25.06;94573.97;5035286;28;20050;-47
2021/04/23 00:11:41;;;;;;;4.50;3.53;;;;;;;22.24;28.01;94582.47;5033689;28;20046;-53
2021/04/23 00:14:11;;;;;;;3.97;2.60;;;;;;;23.42;26.20;94580.47;5034415;28;20499;-57
2021/04/23 00:16:39;;;;;;;5.13;3.33;;;;;;;24.14;25.18;94571.34;5032323;28;20188;-51
2021/04/23 00:19:11;;;;;;;6.25;3.20;;;;;;;25.21;24.12;94584.44;5033381;28;20056;-50
2021/04/23 00:21:39;;;;;;;8.98;3.88;;;;;;;24.46;24.47;94574.34;5031548;28;20046;-47
2021/04/23 00:24:06;;;;;;;4.75;3.65;;;;;;;23.05;27.05;94580.31;5034816;28;20360;-50
2021/04/23 00:26:34;;;;;;;6.40;3.17;;;;;;;23.47;26.25;94579.38;5035655;28;20364;-48
2021/04/23 00:29:01;;;;;;;4.15;2.80;;;;;;;26.45;22.42;94563.88;5035497;28;20363;-47
2021/04/23 00:31:28;;;;;;;3.83;3.08;;;;;;;23.21;26.84;94575.59;5035426;28;20045;-48
2021/04/23 00:33:55;;;;;;;5.50;3.13;;;;;;;22.24;28.33;94574.47;5034585;28;20052;-48
2021/04/23 00:36:23;;;;;;;4.93;3.15;;;;;;;26.02;23.11;94577.97;5037742;28;20056;-49
2021/04/23 00:38:50;;;;;;;4.60;3.53;;;;;;;26.22;22.33;94586.41;5032760;28;20060;-48
2021/04/23 00:41:21;;;;;;;6.18;3.60;;;;;;;23.75;25.55;94573.63;5034096;28;20060;-56
2021/04/23 00:43:57;;;;;;;3.90;3.17;;;;;;;22.81;26.99;94578.03;5035355;28;20057;-49
2021/04/23 00:46:32;;;;;;;4.22;3.00;;;;;;;26.95;21.67;94578.78;5035787;28;20060;-53
2021/04/23 00:49:01;;;;;;;4.80;3.30;;;;;;;22.11;28.01;94579.19;5034950;28;20056;-46
2021/04/23 00:51:44;;;;;;;4.75;3.25;;;;;;;24.34;25.41;94585.31;5011810;28;20052;-48
2021/04/23 00:54:15;;;;;;;3.88;2.28;;;;;;;26.38;22.54;94578.81;5034986;28;20326;-49
2021/04/23 00:56:43;;;;;;;2.60;1.85;;;;;;;26.93;22.15;94569.59;5035031;28;20474;-53
2021/04/23 00:59:12;;;;;;;3.33;1.88;;;;;;;23.19;26.67;94571.78;5033793;28;20094;-57
2021/04/23 01:02:07;;;;;;;2.45;1.65;;;;;;;24.97;24.42;94578.91;5032717;28;20049;-47
2021/04/23 01:04:34;;;;;;;2.40;1.80;;;;;;;23.57;26.77;94587.53;5034936;28;20060;-47
2021/04/23 01:07:01;;;;;;;2.42;1.80;;;;;;;22.56;28.12;94588.31;5034792;28;20049;-49
2021/04/23 01:09:30;;;;;;;2.95;1.77;;;;;;;25.17;24.59;94588.25;5034466;28;20080;-47
2021/04/23 01:12:00;;;;;;;2.08;1.50;;;;;;;25.02;24.97;94587.41;5032071;28;20049;-47
2021/04/23 01:14:28;;;;;;;2.85;2.17;;;;;;;25.67;23.63;94588.53;5037001;28;20045;-50
2021/04/23 01:16:55;;;;;;;2.65;2.00;;;;;;;22.63;28.41;94589.19;5037774;28;20045;-48
2021/04/23 01:19:24;;;;;;;2.97;1.95;;;;;;;25.54;24.37;94596.09;5035541;28;20049;-50
2021/04/23 01:21:51;;;;;;;2.35;1.65;;;;;;;26.75;22.47;94591.06;5034352;28;20057;-47
2021/04/23 01:24:19;;;;;;;3.45;1.75;;;;;;;25.30;24.93;94592.16;5034755;28;20049;-48
2021/04/23 01:26:52;;;;;;;2.15;1.80;;;;;;;25.58;24.74;94598.81;5034326;28;20042;-49
2021/04/23 01:29:20;;;;;;;2.17;1.80;;;;;;;25.28;24.76;94601.72;5028652;28;20076;-49
2021/04/23 01:31:56;;;;;;;2.10;1.90;;;;;;;24.84;25.90;94607.88;5033881;28;20041;-49
2021/04/23 01:34:30;;;;;;;2.63;2.15;;;;;;;24.04;26.51;94604.06;5033494;28;20049;-53
2021/04/23 01:36:59;;;;;;;2.17;1.90;;;;;;;23.92;27.30;94600.50;5032650;28;20041;-49
2021/04/23 01:39:29;;;;;;;3.25;2.20;;;;;;;23.80;27.45;94598.09;5032540;28;20053;-47
2021/04/23 01:41:57;;;;;;;2.67;2.17;;;;;;;24.46;26.71;94599.19;5032391;28;20049;-53
2021/04/23 01:44:25;;;;;;;3.22;2.10;;;;;;;23.57;28.00;94608.09;5036236;28;20049;-47
2021/04/23 01:46:53;;;;;;;2.78;1.88;;;;;;;24.26;27.30;94600.47;5034696;28;20057;-48
2021/04/23 01:49:23;;;;;;;2.78;2.22;;;;;;;22.95;29.43;94615.59;5031741;28;20053;-48
2021/04/23 01:51:59;;;;;;;2.70;2.05;;;;;;;23.46;28.24;94607.19;5034168;28;20353;-48
2021/04/23 01:54:27;;;;;;;2.55;2.13;;;;;;;23.22;28.76;94608.38;5035936;28;20049;-49
2021/04/23 01:56:55;;;;;;;2.88;2.13;;;;;;;26.02;24.86;94620.00;5034385;28;20051;-48
2021/04/23 01:59:23;;;;;;;3.35;2.10;;;;;;;24.07;27.18;94630.03;5030337;28;20068;-47
2021/04/23 02:01:51;;;;;;;2.38;1.77;;;;;;;23.19;28.50;94615.22;5034106;28;20064;-53
2021/04/23 02:04:18;;;;;;;1.83;1.52;;;;;;;24.14;27.04;94624.75;5034543;28;20049;-49
2021/04/23 02:06:47;;;;;;;2.47;1.90;;;;;;;24.97;25.61;94616.34;5033995;28;20042;-47
2021/04/23 02:09:15;;;;;;;3.05;2.20;;;;;;;23.07;28.79;94624.16;5032867;28;20045;-48
2021/04/23 02:11:45;;;;;;;2.13;1.58;;;;;;;23.61;27.83;94622.25;5031927;28;20037;-47
2021/04/23 02:14:13;;;;;;;3.65;1.45;;;;;;;23.72;27.63;94631.16;5033198;28;20056;-49
2021/04/23 02:16:41;;;;;;;2.10;1.50;;;;;;;23.66;27.44;94632.59;5031602;28;20053;-47
2021/04/23 02:19:12;;;;;;;2.35;1.60;;;;;;;23.04;28.51;94629.44;5018165;28;20076;-49
2021/04/23 02:21:40;;;;;;;2.63;1.95;;;;;;;23.55;27.43;94619.09;5035826;28;20049;-49
2021/04/23 02:24:08;;;;;;;2.58;1.88;;;;;;;23.33;28.06;94615.38;5037784;28;20041;-50
2021/04/23 02:26:36;;;;;;;2.70;2.17;;;;;;;22.41;30.41;94620.06;5037929;28;20048;-49
2021/04/23 02:29:09;;;;;;;3.30;2.28;;;;;;;21.92;31.09;94619.91;5035253;28;20049;-54
2021/04/23 02:31:39;;;;;;;3.55;2.05;;;;;;;23.17;29.04;94628.13;5035292;28;20325;-52
2021/04/23 02:34:09;;;;;;;3.60;2.10;;;;;;;22.34;30.42;94632.47;5037445;28;20056;-48
2021/04/23 02:36:37;;;;;;;2.80;1.90;;;;;;;23.02;29.60;94629.03;5040934;28;20060;-51
2021/04/23 02:39:06;;;;;;;3.13;2.10;;;;;;;22.22;30.97;94628.06;5036561;28;20053;-49
2021/04/23 02:41:34;;;;;;;3.33;1.98;;;;;;;22.21;30.84;94641.75;5038923;28;20061;-46
2021/04/23 02:44:02;;;;;;;3.03;1.80;;;;;;;22.63;30.48;94636.38;5037337;28;20053;-47
2021/04/23 02:46:30;;;;;;;2.90;1.65;;;;;;;22.35;31.06;94647.31;5038752;28;20444;-54
2021/04/23 02:48:57;;;;;;;3.03;2.00;;;;;;;21.41;33.09;94651.94;5037426;28;20079;-49
2021/04/23 02:51:30;;;;;;;4.65;2.00;;;;;;;21.57;32.60;94645.78;5038682;28;20052;-47
2021/04/23 02:53:59;;;;;;;3.10;1.95;;;;;;;21.53;32.94;94641.16;5036030;28;20049;-47
2021/04/23 02:56:26;;;;;;;2.60;1.90;;;;;;;22.01;32.01;94648.94;5037284;28;20048;-49
2021/04/23 02:58:58;;;;;;;3.33;2.15;;;;;;;21.86;32.65;94642.59;5034688;28;20366;-47
2021/04/23 03:01:29;;;;;;;2.92;1.85;;;;;;;23.34;30.14;94648.94;5035438;28;20061;-53
2021/04/23 03:03:56;;;;;;;2.88;1.90;;;;;;;22.99;29.89;94651.09;5031785;28;20045;-49
2021/04/23 03:06:25;;;;;;;2.67;1.70;;;;;;;21.47;32.95;94657.75;5034968;28;20052;-49
2021/04/23 03:08:53;;;;;;;2.65;1.70;;;;;;;22.14;32.03;94669.78;5039925;28;20368;-52
2021/04/23 03:11:23;;;;;;;3.80;2.42;;;;;;;21.58;33.00;94663.28;5037106;28;20048;-57
2021/04/23 03:13:52;;;;;;;3.55;2.40;;;;;;;21.48;33.59;94665.38;5033940;28;20456;-49
2021/04/23 03:16:20;;;;;;;4.95;2.60;;;;;;;21.52;33.77;94670.75;5036866;28;20061;-47
2021/04/23 03:18:48;;;;;;;4.18;2.60;;;;;;;21.70;33.60;94669.25;5036730;28;20452;-50
2021/04/23 03:21:17;;;;;;;3.75;2.70;;;;;;;21.30;34.26;94661.53;5034042;28;20376;-47
2021/04/23 03:23:44;;;;;;;3.75;2.70;;;;;;;22.50;32.64;94675.75;5036865;28;20041;-46
2021/04/23 03:26:13;;;;;;;4.50;2.70;;;;;;;20.99;34.75;94680.16;5036755;28;20052;-47
2021/04/23 03:28:42;;;;;;;2.60;2.08;;;;;;;23.25;30.36;94677.75;5036732;28;20057;-49
2021/04/23 03:31:10;;;;;;;4.18;2.00;;;;;;;21.68;33.18;94684.03;5035244;28;20049;-49
2021/04/23 03:33:38;;;;;;;3.30;2.47;;;;;;;21.62;33.51;94680.09;5034472;28;20057;-54
2021/04/23 03:36:06;;;;;;;3.05;1.95;;;;;;;20.70;34.73;94676.06;5036641;28;20054;-57
2021/04/23 03:38:35;;;;;;;2.47;1.75;;;;;;;21.65;33.25;94684.72;5035043;28;20468;-47
2021/04/23 03:41:06;;;;;;;2.33;1.90;;;;;;;21.47;33.49;94682.44;5036394;28;20049;-47
2021/04/23 03:43:33;;;;;;;3.13;1.80;;;;;;;22.15;32.40;94679.31;5036449;28;20057;-56
2021/04/23 03:46:00;;;;;;;2.17;1.55;;;;;;;21.25;34.21;94691.06;5036725;28;20372;-48
2021/04/23 03:48:27;;;;;;;4.50;2.58;;;;;;;22.15;32.54;94692.63;5036778;28;20060;-48
2021/04/23 03:50:54;;;;;;;4.03;2.90;;;;;;;21.48;34.14;94705.25;5036423;28;20105;-56
2021/04/23 03:53:22;;;;;;;4.88;3.47;;;;;;;21.25;34.94;94704.34;5034285;28;20068;-48
2021/04/23 03:55:51;;;;;;;4.70;3.70;;;;;;;20.70;35.92;94705.28;5036395;28;20053;-49
2021/04/23 03:58:19;;;;;;;4.57;3.38;;;;;;;21.30;35.04;94706.75;5034588;28;20045;-48
2021/04/23 04:00:49;;;;;;;5.15;3.70;;;;;;;21.35;34.71;94703.84;5032998;28;20045;-47
2021/04/23 04:03:16;;;;;;;5.97;3.20;;;;;;;20.55;36.56;94698.81;5035532;28;20076;-54
2021/04/23 04:05:44;;;;;;;4.13;3.17;;;;;;;21.04;35.31;94701.16;5034434;28;20483;-50
2021/04/23 04:08:11;;;;;;;4.00;3.00;;;;;;;20.91;35.69;94714.56;5041371;28;20052;-47
2021/04/23 04:10:39;;;;;;;5.22;2.88;;;;;;;20.73;36.15;94721.31;5036502;28;20053;-49
2021/04/23 04:13:07;;;;;;;2.67;2.20;;;;;;;26.97;26.54;94713.28;5027738;28;20058;-49
2021/04/23 04:15:35;;;;;;;3.03;1.90;;;;;;;29.04;23.42;94693.91;5030980;28;20061;-51
2021/04/23 04:18:03;;;;;;;5.68;2.28;;;;;;;30.61;21.36;94704.66;5034328;28;20053;-52
2021/04/23 04:20:32;;;;;;;5.18;1.95;;;;;;;31.51;20.27;94709.50;5035190;28;20057;-54
2021/04/23 04:22:59;;;;;;;2.05;1.58;;;;;;;33.21;18.66;94718.09;5031298;28;20057;-51
2021/04/23 04:25:32;;;;;;;3.25;2.00;;;;;;;31.19;20.16;94721.56;5031862;28;20060;-47
2021/04/23 04:27:59;;;;;;;3.22;1.90;;;;;;;31.28;20.04;94719.13;5034554;28;20045;-50
2021/04/23 04:30:27;;;;;;;5.10;2.40;;;;;;;31.03;20.71;94717.94;5025959;28;20486;-52
2021/04/23 04:32:56;;;;;;;5.50;1.98;;;;;;;32.97;18.43;94717.47;5033674;28;20049;-46
2021/04/23 04:35:27;;;;;;;4.03;2.25;;;;;;;33.64;17.70;94721.31;5031286;28;20056;-55
2021/04/23 04:37:56;;;;;;;2.60;2.00;;;;;;;33.12;18.45;94718.69;5032990;28;20057;-47
2021/04/23 04:40:24;;;;;;;2.80;1.90;;;;;;;32.46;18.67;94723.19;5030804;28;20337;-56
2021/04/23 04:42:51;;;;;;;3.05;2.22;;;;;;;29.75;21.67;94725.63;5015739;28;20060;-50
2021/04/23 04:45:22;;;;;;;3.50;2.78;;;;;;;27.93;23.48;94723.25;5015419;28;20062;-48
2021/04/23 04:47:49;;;;;;;3.30;2.63;;;;;;;26.06;26.59;94722.59;5028476;28;20053;-47
2021/04/23 04:50:24;;;;;;;3.08;2.78;;;;;;;26.57;25.68;94724.34;5035588;28;20053;-46
2021/04/23 04:52:54;;;;;;;5.75;3.20;;;;;;;25.19;27.49;94725.84;5022530;28;20045;-47
2021/04/23 04:55:24;;;;;;;3.78;3.08;;;;;;;25.27;27.69;94736.63;5015940;28;20050;-49
2021/04/23 04:57:52;;;;;;;4.13;2.78;;;;;;;24.34;29.06;94742.94;5015951;28;20048;-46
2021/04/23 05:00:20;;;;;;;3.42;2.80;;;;;;;24.31;29.07;94747.09;5027463;28;20057;-48
2021/04/23 05:02:48;;;;;;;4.47;2.92;;;;;;;24.77;28.45;94741.50;5023704;28;20046;-46
2021/04/23 05:05:15;;;;;;;4.50;3.50;;;;;;;24.93;28.50;94750.03;5015764;28;20054;-45
2021/04/23 05:07:42;;;;;;;3.97;3.00;;;;;;;24.47;28.88;94746.91;5014837;28;20042;-48
2021/04/23 05:10:10;;;;;;;5.00;3.60;;;;;;;24.07;29.94;94740.28;5015425;28;20056;-45
2021/04/23 05:12:37;;;;;;;4.22;3.47;;;;;;;24.40;29.21;94750.25;5014595;28;20053;-46
2021/04/23 05:15:07;;;;;;;6.13;3.42;;;;;;;24.10;29.89;94752.91;4998395;28;20384;-45
2021/04/23 05:17:36;;;;;;;5.28;3.60;;;;;;;23.71;30.52;94760.41;5014750;28;20080;-45
2021/04/23 05:20:08;;;;;;;7.05;4.32;;;;;;;23.46;30.81;94765.34;5015279;28;20045;-47
2021/04/23 05:22:35;;;;;;;7.78;4.63;;;;;;;23.72;30.44;94758.50;5015171;28;20412;-46
2021/04/23 05:25:05;;;;;;;5.70;3.90;;;;;;;23.78;30.33;94757.84;5015599;28;20076;-45
2021/04/23 05:27:32;;;;;;;7.80;4.80;;;;;;;23.43;30.79;94765.28;5015501;28;20050;-45
2021/04/23 05:30:00;;;;;;;8.10;4.50;;;;;;;23.41;31.11;94764.84;5007313;28;20049;-46
2021/04/23 05:32:28;;;;;;;7.75;5.38;;;;;;;23.41;30.68;94764.84;5035241;28;20041;-46
2021/04/23 05:34:55;;;;;;;8.15;4.88;;;;;;;23.05;31.40;94775.72;5034364;28;20050;-46
2021/04/23 05:37:22;;;;;;;8.65;5.03;;;;;;;23.19;31.51;94775.22;5035259;28;20049;-47
2021/04/23 05:39:49;;;;;;;9.88;5.10;;;;;;;23.72;30.54;94780.63;5035013;28;20361;-46
2021/04/23 05:42:17;;;;;;;6.22;4.80;;;;;;;23.71;30.55;94779.09;5034911;28;20053;-45
2021/04/23 05:44:44;;;;;;;7.80;4.95;;;;;;;24.01;30.03;94775.69;5016497;28;20057;-50
2021/04/23 05:47:12;;;;;;;6.97;4.60;;;;;;;23.36;30.78;94774.72;5015185;28;20058;-50
2021/04/23 05:49:39;;;;;;;5.88;4.20;;;;;;;23.26;31.12;94791.31;5015117;28;20365;-48
2021/04/23 05:52:08;;;;;;;6.25;4.40;;;;;;;23.48;30.84;94784.44;5015258;28;20376;-46
2021/04/23 05:54:36;;;;;;;6.80;3.97;;;;;;;23.04;31.66;94795.50;5014986;28;20073;-51
2021/04/23 05:57:04;;;;;;;6.15;4.50;;;;;;;22.82;31.91;94793.59;5017673;28;20057;-46
2021/04/23 05:59:32;;;;;;;5.70;3.80;;;;;;;22.95;31.74;94789.66;5024640;28;20060;-45
2021/04/23 06:01:59;;;;;;;5.57;3.92;;;;;;;22.76;32.29;94787.75;5019960;28;20049;-45
2021/04/23 06:04:27;;;;;;;5.43;3.85;;;;;;;22.51;32.84;94794.50;5018784;28;20360;-45
2021/04/23 06:06:54;;;;;;;5.65;3.88;;;;;;;23.59;31.12;94800.63;5019068;28;20117;-45
2021/04/23 06:09:21;;;;;;;6.43;4.35;;;;;;;23.31;31.73;94801.69;5018909;28;20049;-46
2021/04/23 06:11:48;;;;;;;6.18;4.35;;;;;;;23.43;31.22;94807.97;5018707;28;20046;-44
2021/04/23 06:14:16;;;;;;;6.32;4.50;;;;;;;23.15;32.08;94793.03;5018593;28;20057;-46
2021/04/23 06:16:43;;;;;;;6.80;5.20;;;;;;;23.06;31.92;94797.81;5018855;28;20058;-45
2021/04/23 06:19:10;;;;;;;7.22;5.43;;;;;;;23.17;32.00;94800.69;5001521;28;20054;-45
2021/04/23 06:21:37;;;;;;;6.45;5.13;;;;;;;22.47;33.35;94804.31;5018486;28;20054;-45
2021/04/23 06:24:05;;;;;;;6.82;5.90;;;;;;;23.78;31.05;94810.44;5018382;28;20368;-44
2021/04/23 06:26:32;;;;;;;8.30;5.65;;;;;;;23.33;32.18;94810.09;5018770;28;20056;-45
2021/04/23 06:28:59;;;;;;;7.15;5.57;;;;;;;23.20;32.18;94808.75;5019742;28;20065;-45
2021/04/23 06:31:27;;;;;;;8.88;5.90;;;;;;;21.54;35.56;94802.28;5021662;28;20054;-46
2021/04/23 06:33:54;;;;;;;7.93;5.50;;;;;;;22.94;32.95;94806.00;5018313;28;20475;-46
2021/04/23 06:36:21;;;;;;;6.60;4.57;;;;;;;22.73;33.03;94804.44;5018627;28;20042;-46
2021/04/23 06:38:49;;;;;;;7.18;4.10;;;;;;;22.57;32.78;94803.75;5018443;28;20042;-46
2021/04/23 06:41:16;;;;;;;7.82;4.05;;;;;;;22.67;32.54;94808.53;5018291;28;20372;-46
2021/04/23 06:43:43;;;;;;;5.28;3.10;;;;;;;22.10;33.66;94812.69;5017970;28;20053;-45
2021/04/23 06:46:13;;;;;;;5.38;3.28;;;;;;;22.25;33.40;94805.00;5017418;28;20054;-45
2021/04/23 06:48:42;;;;;;;6.22;3.20;;;;;;;22.49;32.79;94807.41;5030850;28;20045;-45
2021/04/23 06:51:09;;;;;;;5.22;2.67;;;;;;;22.34;33.02;94810.91;5020299;28;20048;-48
2021/04/23 06:53:36;;;;;;;4.32;2.80;;;;;;;21.78;33.85;94811.19;5037877;28;20049;-46
2021/04/23 06:56:04;;;;;;;2.85;2.30;;;;;;;22.37;33.12;94810.19;5020361;28;20056;-45
2021/04/23 06:58:31;;;;;;;4.40;2.40;;;;;;;23.14;31.48;94804.03;5037575;28;20052;-46
2021/04/23 07:00:58;;;;;;;2.72;1.80;;;;;;;22.54;32.21;94812.44;5037260;28;20048;-46
2021/04/23 07:03:26;;;;;;;3.20;2.00;;;;;;;22.29;32.42;94817.28;5037616;28;20776;-45
2021/04/23 07:05:55;;;;;;;2.63;1.95;;;;;;;21.68;32.94;94819.72;5037678;28;20053;-46
2021/04/23 07:08:22;;;;;;;2.05;1.42;;;;;;;22.60;31.48;94827.03;5018242;28;20056;-45
2021/04/23 07:10:49;;;;;;;3.05;1.90;;;;;;;22.77;31.98;94825.84;5017370;28;20058;-46
2021/04/23 07:13:17;;;;;;;5.03;1.98;;;;;;;22.45;32.18;94819.88;5017803;28;20049;-47
2021/04/23 07:15:44;;;;;;;2.35;1.60;;;;;;;21.96;32.60;94817.69;5017617;28;20049;-45
2021/04/23 07:18:11;;;;;;;2.20;1.58;;;;;;;22.06;32.48;94816.41;5017644;28;20050;-46
2021/04/23 07:20:39;;;;;;;2.13;1.55;;;;;;;22.57;31.86;94826.97;5017206;28;20049;-45
2021/04/23 07:23:06;;;;;;;3.15;1.80;;;;;;;21.59;34.04;94819.88;5017481;28;20051;-46
2021/04/23 07:25:34;;;;;;;2.55;1.95;;;;;;;22.05;33.72;94820.19;5017577;28;20365;-45
2021/04/23 07:28:01;;;;;;;5.07;2.17;;;;;;;21.44;34.57;94824.09;5017359;28;20041;-46
2021/04/23 07:30:31;;;;;;;7.78;2.33;;;;;;;21.89;34.12;94833.50;5030342;28;20045;-45
2021/04/23 07:32:59;;;;;;;3.15;1.88;;;;;;;22.52;32.40;94833.34;5037090;28;20048;-46
2021/04/23 07:35:27;;;;;;;2.17;1.60;;;;;;;21.83;33.01;94832.19;5037101;28;20369;-46
2021/04/23 07:37:58;;;;;;;4.07;1.42;;;;;;;21.91;32.32;94833.94;5037129;28;20041;-57
2021/04/23 07:40:26;;;;;;;2.13;1.48;;;;;;;22.29;32.19;94841.25;5019214;28;20368;-47
2021/04/23 07:42:53;;;;;;;2.97;1.60;;;;;;;21.93;32.67;94841.56;5036989;28;20045;-52
2021/04/23 07:45:20;;;;;;;2.08;1.40;;;;;;;22.61;31.01;94841.88;5019381;28;20052;-46
2021/04/23 07:47:47;;;;;;;2.47;1.40;;;;;;;21.67;32.42;94847.44;5036906;28;20061;-47
2021/04/23 07:50:18;;;;;;;2.20;1.30;;;;;;;21.19;33.15;94841.28;5036329;28;20084;-47
2021/04/23 07:52:45;;;;;;;1.95;1.27;;;;;;;22.51;31.59;94847.78;5036846;28;20041;-45
2021/04/23 07:55:14;;;;;;;3.80;1.90;;;;;;;21.88;32.19;94839.19;5036732;28;20045;-46
2021/04/23 07:57:41;;;;;;;4.82;2.25;;;;;;;21.61;33.02;94835.50;5036643;28;20056;-46
2021/04/23 08:00:16;;;;;;;4.72;1.90;;;;;;;22.17;32.08;94837.94;5035839;28;20067;-45
2021/04/23 08:02:44;;;;;;;1.90;1.65;;;;;;;21.56;32.82;94836.53;5035871;28;20057;-46
2021/04/23 08:05:13;;;;;;;2.33;1.65;;;;;;;21.85;32.59;94843.28;5036556;28;20337;-45
2021/04/23 08:07:40;;;;;;;3.70;1.65;;;;;;;22.55;31.26;94840.63;5036451;28;20056;-45
2021/04/23 08:10:09;;;;;;;2.38;1.75;;;;;;;22.19;32.25;94847.13;5024457;28;20053;-46
2021/04/23 08:12:37;;;;;;;3.20;1.92;;;;;;;22.57;31.72;94849.03;5016568;28;20042;-46
2021/04/23 08:15:11;;;;;;;9.13;2.10;;;;;;;22.59;32.02;94843.34;5016458;28;20054;-47
2021/04/23 08:17:38;;;;;;;3.38;2.17;;;;;;;21.80;33.88;94840.88;5016933;28;20069;-46
2021/04/23 08:20:07;;;;;;;3.10;2.08;;;;;;;23.34;31.66;94846.31;5015942;28;20046;-46
2021/04/23 08:22:35;;;;;;;3.50;2.13;;;;;;;23.39;31.50;94848.69;5031078;28;20056;-48
2021/04/23 08:25:05;;;;;;;2.60;2.20;;;;;;;23.73;31.06;94840.88;5036237;28;20444;-46
2021/04/23 08:27:32;;;;;;;5.68;2.25;;;;;;;23.51;30.94;94844.31;5036210;28;20057;-46
2021/04/23 08:29:59;;;;;;;3.00;1.90;;;;;;;24.17;29.57;94848.38;5035100;28;20104;-47
2021/04/23 08:32:26;;;;;;;3.13;2.00;;;;;;;22.77;32.11;94853.25;5036072;28;20050;-47
2021/04/23 08:34:53;;;;;;;2.67;1.98;;;;;;;23.45;30.96;94848.41;5036047;28;20049;-45
2021/04/23 08:37:20;;;;;;;4.43;2.50;;;;;;;23.19;31.34;94844.53;5036181;28;20052;-46
2021/04/23 08:39:47;;;;;;;4.13;2.60;;;;;;;23.54;30.70;94849.69;5027630;28;20054;-46
2021/04/23 08:42:15;;;;;;;4.55;2.22;;;;;;;23.64;30.62;94848.34;5016132;28;20057;-46
2021/04/23 08:44:42;;;;;;;3.28;2.00;;;;;;;23.82;29.94;94844.06;5016038;28;20046;-46
2021/04/23 08:47:09;;;;;;;3.38;2.10;;;;;;;23.94;29.80;94851.91;5016157;28;20050;-45
2021/04/23 08:49:37;;;;;;;3.28;2.08;;;;;;;24.49;29.01;94844.28;5015490;28;20486;-46
2021/04/23 08:52:04;;;;;;;2.70;1.80;;;;;;;24.08;29.05;94839.88;4998585;28;20056;-47
2021/04/23 08:54:32;;;;;;;3.03;2.20;;;;;;;24.18;28.93;94840.00;5015926;28;20049;-45
2021/04/23 08:56:59;;;;;;;2.88;2.00;;;;;;;24.87;27.88;94851.22;4998631;28;20452;-45
2021/04/23 08:59:26;;;;;;;2.47;1.75;;;;;;;23.42;29.93;94841.09;5020227;28;20053;-47
2021/04/23 09:01:53;;;;;;;2.88;2.00;;;;;;;24.49;28.72;94841.59;5035552;28;20049;-46
2021/04/23 09:04:20;;;;;;;2.75;2.00;;;;;;;23.86;29.42;94834.22;5035422;28;20053;-46
2021/04/23 09:07:03;;;;;;;2.33;1.48;;;;;;;24.26;28.57;94838.22;5035436;28;20060;-50
2021/04/23 09:09:40;;;;;;;3.08;1.70;;;;;;;24.05;29.45;94841.34;5034938;28;20049;-46
2021/04/23 09:12:19;;;;;;;3.28;1.88;;;;;;;25.28;28.05;94845.19;5032323;28;20060;-51
2021/04/23 09:14:48;;;;;;;2.45;1.80;;;;;;;32.55;18.83;94854.44;5018040;28;20045;-44
2021/04/23 09:17:28;;;;;;;3.03;1.85;;;;;;;32.70;18.63;94850.28;5015919;28;20081;-53
2021/04/23 09:19:56;;;;;;;6.15;5.38;;;;;;;27.40;24.09;94855.59;5026777;28;20055;-55
2021/04/23 09:22:31;;;;;;;4.80;1.85;;;;;;;26.84;25.13;94856.97;5015528;28;20056;-46
2021/04/23 09:24:59;;;;;;;4.03;1.92;;;;;;;30.01;21.26;94846.25;5015454;28;20498;-48
2021/04/23 09:27:35;;;;;;;2.88;1.80;;;;;;;33.50;17.23;94849.00;5022378;28;20060;-54
2021/04/23 09:30:11;;;;;;;10.02;9.23;;;;;;;29.17;21.69;94841.09;5016278;28;20041;-49
2021/04/23 09:32:39;;;;;;;4.43;3.10;;;;;;;27.53;23.50;94843.34;5030364;28;20045;-52
2021/04/23 09:35:18;;;;;;;3.42;1.77;;;;;;;26.48;24.90;94839.94;5034600;28;20356;-48
2021/04/23 09:37:46;;;;;;;3.05;1.80;;;;;;;27.08;24.29;94836.00;5034940;28;20483;-49
2021/04/23 09:40:14;;;;;;;2.30;1.70;;;;;;;27.40;23.54;94847.56;5025175;28;20049;-55
2021/04/23 09:43:01;;;;;;;2.65;1.75;;;;;;;26.51;24.81;94846.47;5015319;28;20058;-47
2021/04/23 09:45:55;;;;;;;2.10;1.55;;;;;;;27.53;23.09;94843.34;5015205;28;20050;-47
2021/04/23 09:48:24;;;;;;;2.58;1.70;;;;;;;26.19;24.95;94844.38;5012438;28;20060;-46
2021/04/23 09:50:53;;;;;;;4.88;1.80;;;;;;;25.09;26.95;94849.56;5014981;28;20061;-46
2021/04/23 09:53:31;;;;;;;3.03;1.52;;;;;;;25.47;26.49;94852.97;5015223;28;20053;-49
2021/04/23 09:55:58;;;;;;;2.22;1.45;;;;;;;25.17;26.73;94848.50;5015303;28;20056;-46
2021/04/23 09:58:26;;;;;;;2.47;1.60;;;;;;;25.74;25.94;94850.94;5021891;28;20060;-46
2021/04/23 10:00:59;;;;;;;3.25;1.70;;;;;;;24.26;28.65;94851.56;5018995;28;20444;-48
2021/04/23 10:03:34;;;;;;;134.43;69.18;;;;;;;24.76;27.61;94858.34;5031962;28;20356;-47
2021/04/23 10:06:21;;;;;;;21.00;13.27;;;;;;;24.18;28.81;94849.91;5023278;28;20046;-46
2021/04/23 10:08:48;;;;;;;7.00;4.60;;;;;;;24.72;28.24;94846.84;5015166;28;20404;-46
2021/04/23 10:11:16;;;;;;;4.63;3.03;;;;;;;24.59;27.87;94848.22;5014561;28;20045;-48
2021/04/23 10:13:43;;;;;;;3.05;2.28;;;;;;;25.19;26.91;94843.53;5015047;28;20046;-47
2021/04/23 10:16:10;;;;;;;3.20;2.50;;;;;;;24.32;28.18;94842.13;5015012;28;20049;-56
2021/04/23 10:18:38;;;;;;;3.45;2.42;;;;;;;23.88;28.41;94847.19;4997901;28;20057;-47
2021/04/23 10:21:05;;;;;;;3.28;2.63;;;;;;;24.24;28.07;94843.16;5014678;28;20045;-47
2021/04/23 10:23:32;;;;;;;5.80;4.97;;;;;;;24.58;27.31;94846.66;5014969;28;20053;-46
2021/04/23 10:26:00;;;;;;;3.70;3.20;;;;;;;24.11;28.04;94844.47;5014904;28;20049;-47
2021/04/23 10:28:27;;;;;;;5.57;2.85;;;;;;;23.66;28.19;94849.53;5014990;28;20050;-46
2021/04/23 10:30:55;;;;;;;3.58;2.95;;;;;;;23.30;28.18;94850.81;5020228;28;20049;-46
2021/04/23 10:33:25;;;;;;;5.13;3.20;;;;;;;23.95;27.51;94850.75;5014866;28;20041;-46
2021/04/23 10:35:55;;;;;;;2.90;2.35;;;;;;;23.27;27.89;94856.88;5014848;28;20042;-46
2021/04/23 10:38:34;;;;;;;3.60;2.65;;;;;;;23.98;27.47;94852.72;5014920;28;20475;-47
2021/04/23 10:41:04;;;;;;;3.55;2.55;;;;;;;23.45;28.33;94859.84;5014561;28;20372;-46
2021/04/23 10:43:34;;;;;;;5.97;2.40;;;;;;;24.13;27.52;94847.56;5016120;28;20054;-48
2021/04/23 10:46:03;;;;;;;3.10;2.53;;;;;;;23.57;28.33;94848.25;5000736;28;20129;-51
2021/04/23 10:48:36;;;;;;;3.83;2.22;;;;;;;23.93;28.05;94855.66;5018254;28;20050;-48
2021/04/23 10:51:21;;;;;;;2.80;2.20;;;;;;;23.55;27.84;94850.47;5017753;28;20452;-48
2021/04/23 10:53:50;;;;;;;2.95;2.08;;;;;;;24.31;26.78;94853.97;5018150;28;20050;-52
2021/04/23 10:56:24;;;;;;;3.33;2.08;;;;;;;23.20;29.16;94859.41;5017994;28;20046;-46
2021/04/23 10:58:52;;;;;;;4.28;2.42;;;;;;;23.19;29.08;94855.22;5018105;28;20046;-47
2021/04/23 11:01:23;;;;;;;3.40;2.40;;;;;;;22.96;29.65;94859.72;5037285;28;20052;-47
2021/04/23 11:04:05;;;;;;;2.92;2.17;;;;;;;23.56;28.95;94854.72;5037687;28;20049;-44
2021/04/23 11:06:35;;;;;;;3.15;2.15;;;;;;;23.68;28.82;94844.63;5037664;28;20046;-46
2021/04/23 11:09:03;;;;;;;4.25;1.90;;;;;;;23.26;29.16;94847.31;5037589;28;20475;-46
2021/04/23 11:11:38;;;;;;;3.45;2.08;;;;;;;23.58;28.67;94849.78;5037315;28;20399;-46
2021/04/23 11:14:25;;;;;;;4.90;2.42;;;;;;;23.59;29.09;94843.31;5037507;28;20037;-46
2021/04/23 11:16:54;;;;;;;3.75;2.50;;;;;;;23.33;29.52;94834.09;5037404;28;20064;-46
2021/04/23 11:19:21;;;;;;;3.25;2.20;;;;;;;24.24;27.80;94833.25;5037566;28;20060;-46
2021/04/23 11:21:49;;;;;;;6.03;2.65;;;;;;;24.15;27.42;94824.69;5037205;28;20072;-46
2021/04/23 11:24:27;;;;;;;3.35;2.83;;;;;;;23.39;27.35;94830.00;5037243;28;20049;-47
2021/04/23 11:26:54;;;;;;;5.43;2.95;;;;;;;23.57;27.42;94832.25;5037247;28;20361;-46
2021/04/23 11:29:27;;;;;;;3.60;3.00;;;;;;;23.41;27.05;94834.22;5036826;28;20045;-47
2021/04/23 11:32:19;;;;;;;3.25;2.78;;;;;;;24.24;26.24;94822.56;5035767;28;20049;-44
2021/04/23 11:35:08;;;;;;;4.38;2.88;;;;;;;23.24;27.99;94830.91;5034862;28;20099;-45
2021/04/23 11:37:43;;;;;;;3.40;2.90;;;;;;;24.27;26.91;94826.41;5033507;28;20049;-45
2021/04/23 11:40:18;;;;;;;4.13;2.90;;;;;;;24.58;26.18;94820.72;5035270;28;20045;-45
2021/04/23 11:42:50;;;;;;;6.47;3.08;;;;;;;24.63;26.87;94818.84;5035878;28;20448;-47
2021/04/23 11:45:32;;;;;;;2.97;2.55;;;;;;;24.23;27.50;94828.25;5034001;28;20045;-47